Tumbes, Tumbes Airport (SPME)

NameTumbes Airport
CityTumbes
CountryPeru
ICAOSPME
IATATBP
Altitude35 m
CoordinatesGoogle Map
Live Air TrafficLiveATC.net
METARSPME 230300Z 27003KT 9999 FEW014 BKN017 26/24 Q1010 RMK BIRD HAZARD RWY 32/14 PP000
2019-02-23 03:00:00 Wind: West (270°) 1.54 m/s - Visibility: > 10000 m - Temperature: 26 °C - Dew point: 24 °C - Humidity: 88.8% - Pressure: 1010 hPa
Statistics

The table below shows the detailed information of all flights to/from Tumbes, Tumbes Airport (SPME).